Time;durP1;ratioP1;P1;durP2;ratioP2;P2;SDS_P1;SDS_P2;PMS_P1;PMS_P2;Temp;Humidity;BMP_temperature;BMP_pressure;BME280_temperature;BME280_humidity;BME280_pressure;Samples;Min_cycle;Max_cycle;Signal;HPM_P1;HPM_P2
2021/01/16 00:00:32;;;;;;;13.35;7.35;;;;;;;2.92;70.27;101089.06;5016999;28;20056;-84
2021/01/16 00:02:59;;;;;;;12.30;7.45;;;;;;;2.92;70.65;101089.91;5016951;28;20052;-88
2021/01/16 00:05:28;;;;;;;12.68;7.60;;;;;;;2.89;70.43;101087.34;5016142;28;20069;-87
2021/01/16 00:08:00;;;;;;;12.98;7.97;;;;;;;2.88;69.22;101079.53;5016949;28;20061;-84
2021/01/16 00:10:28;;;;;;;11.85;6.70;;;;;;;2.87;70.77;101081.25;5015629;28;20133;-87
2021/01/16 00:12:54;;;;;;;11.90;7.28;;;;;;;2.83;70.61;101089.94;5016640;28;20057;-84
2021/01/16 00:15:21;;;;;;;12.13;7.20;;;;;;;2.79;70.82;101093.44;5015896;28;20058;-84
2021/01/16 00:17:57;;;;;;;11.10;7.30;;;;;;;2.73;69.29;101086.53;5017125;28;20061;-84
2021/01/16 00:20:23;;;;;;;10.45;6.57;;;;;;;2.75;70.90;101087.38;5015757;28;20230;-88
2021/01/16 00:22:51;;;;;;;10.20;6.30;;;;;;;2.75;70.83;101089.97;5014664;28;20057;-84
2021/01/16 00:25:18;;;;;;;11.68;6.82;;;;;;;2.75;70.61;101087.38;5015966;28;20058;-84
2021/01/16 00:27:44;;;;;;;8.95;5.78;;;;;;;2.74;70.68;101068.31;5016952;28;20080;-88
2021/01/16 00:30:11;;;;;;;11.43;6.28;;;;;;;2.74;70.85;101073.50;5016675;28;20058;-87
2021/01/16 00:32:39;;;;;;;12.15;7.10;;;;;;;2.78;70.44;101070.91;5014876;28;20100;-84
2021/01/16 00:35:09;;;;;;;12.25;7.05;;;;;;;2.75;70.00;101061.38;5015429;28;20103;-84
2021/01/16 00:37:36;;;;;;;10.88;6.75;;;;;;;2.77;70.41;101066.56;5015143;28;20137;-88
2021/01/16 00:43:16;;;;;;;12.68;7.20;;;;;;;2.67;68.60;101061.41;5015313;28;20081;-88
2021/01/16 00:45:50;;;;;;;14.07;7.57;;;;;;;2.65;70.10;101055.34;5015233;28;20082;-84
2021/01/16 00:48:25;;;;;;;12.35;7.30;;;;;;;2.62;70.11;101052.75;5015801;28;20076;-84
2021/01/16 00:50:55;;;;;;;12.63;7.53;;;;;;;2.55;70.29;101051.88;5015305;28;20490;-88
2021/01/16 00:53:26;;;;;;;11.02;6.97;;;;;;;2.54;70.40;101059.72;5014790;28;20491;-89
2021/01/16 00:55:58;;;;;;;11.38;6.68;;;;;;;2.51;70.38;101060.59;5015189;28;20077;-84
2021/01/16 00:58:30;;;;;;;13.45;7.30;;;;;;;2.46;70.09;101052.78;5015570;28;20104;-88
2021/01/16 01:01:00;;;;;;;12.10;7.15;;;;;;;2.42;69.62;101056.25;5014927;28;20144;-84
2021/01/16 01:03:27;;;;;;;13.73;8.25;;;;;;;2.40;70.10;101051.94;5014606;28;20499;-88
2021/01/16 01:06:01;;;;;;;15.05;8.65;;;;;;;2.37;70.26;101055.41;5014559;28;20050;-88
2021/01/16 01:08:29;;;;;;;14.07;8.45;;;;;;;2.34;70.64;101063.22;5016594;28;20060;-87
2021/01/16 01:11:25;;;;;;;16.45;8.43;;;;;;;2.29;68.95;101049.38;5014965;28;20073;-88
2021/01/16 01:13:57;;;;;;;13.48;7.63;;;;;;;2.31;70.70;101058.00;5015779;28;20054;-88
2021/01/16 01:16:23;;;;;;;14.57;8.15;;;;;;;2.29;70.91;101057.16;5014525;28;20404;-86
2021/01/16 01:18:49;;;;;;;15.25;7.45;;;;;;;2.30;71.03;101057.16;5016303;28;20056;-88
2021/01/16 01:21:15;;;;;;;15.45;8.43;;;;;;;2.30;70.79;101053.69;5015590;28;20054;-87
2021/01/16 01:23:41;;;;;;;14.73;8.25;;;;;;;2.33;71.30;101058.88;5013985;28;20054;-87
2021/01/16 01:26:08;;;;;;;11.60;7.32;;;;;;;2.34;70.92;101051.09;5015510;28;20510;-88
2021/01/16 01:28:34;;;;;;;17.20;8.18;;;;;;;2.34;70.76;101042.41;5014618;28;20058;-83
2021/01/16 01:31:01;;;;;;;13.50;7.90;;;;;;;2.36;70.77;101045.91;5014135;28;20049;-87
2021/01/16 01:33:27;;;;;;;16.48;8.25;;;;;;;2.36;71.13;101045.91;5013889;28;20434;-88
2021/01/16 01:35:53;;;;;;;12.95;7.65;;;;;;;2.37;70.73;101038.94;5015216;28;20061;-86
2021/01/16 01:38:20;;;;;;;13.90;8.13;;;;;;;2.36;70.77;101038.09;5014811;28;20046;-84
2021/01/16 01:40:46;;;;;;;14.50;8.00;;;;;;;2.38;70.86;101040.66;5014470;28;20046;-84
2021/01/16 01:43:13;;;;;;;17.40;7.72;;;;;;;2.37;71.06;101032.03;5014395;28;20536;-87
2021/01/16 01:45:40;;;;;;;12.60;7.30;;;;;;;2.40;70.68;101038.94;5013715;28;20054;-86
2021/01/16 01:48:13;;;;;;;11.48;6.70;;;;;;;2.40;70.70;101037.22;5015543;28;20129;-83
2021/01/16 01:50:39;;;;;;;16.23;7.35;;;;;;;2.43;71.18;101039.78;5014597;28;20060;-88
2021/01/16 01:53:08;;;;;;;14.30;7.57;;;;;;;2.45;71.41;101024.19;5013953;28;20052;-84
2021/01/16 01:55:38;;;;;;;13.25;7.35;;;;;;;2.48;71.07;101032.00;5015184;28;20461;-84
2021/01/16 01:58:18;;;;;;;15.40;7.28;;;;;;;2.51;71.09;101032.00;5014734;28;20057;-88
2021/01/16 02:00:46;;;;;;;14.27;8.18;;;;;;;2.53;70.91;101030.25;5013756;28;20057;-87
2021/01/16 02:03:15;;;;;;;13.60;7.90;;;;;;;2.55;71.06;101031.09;5014149;28;20501;-86
2021/01/16 02:05:45;;;;;;;16.45;7.82;;;;;;;2.58;70.93;101027.66;5014190;28;20053;-88
2021/01/16 02:08:14;;;;;;;13.82;8.45;;;;;;;2.58;70.73;101035.44;5013733;28;20053;-89
2021/01/16 02:10:40;;;;;;;17.42;8.60;;;;;;;2.59;71.22;101026.78;5013765;28;20045;-86
2021/01/16 02:13:18;;;;;;;15.70;8.82;;;;;;;2.61;70.63;101030.22;5014408;28;20064;-83
2021/01/16 02:15:56;;;;;;;16.55;8.50;;;;;;;2.62;70.42;101033.69;5014721;28;20136;-87
2021/01/16 02:18:47;;;;;;;15.18;7.85;;;;;;;2.57;69.07;101020.69;5014680;28;20054;-87
2021/01/16 02:21:46;;;;;;;15.18;8.57;;;;;;;2.58;68.62;101027.66;5013584;28;20046;-86
2021/01/16 02:24:25;;;;;;;16.23;9.13;;;;;;;2.58;69.92;101028.50;5013836;28;20058;-88
2021/01/16 02:27:37;;;;;;;19.05;10.13;;;;;;;2.57;69.13;101018.09;5013464;28;20481;-88
2021/01/16 02:30:09;;;;;;;17.63;10.15;;;;;;;2.56;70.55;101021.56;5013466;28;20054;-86
2021/01/16 02:32:41;;;;;;;20.13;9.98;;;;;;;2.52;69.91;101015.53;5014291;28;20074;-88
2021/01/16 02:35:17;;;;;;;21.13;10.32;;;;;;;2.52;70.69;101012.94;5014593;28;20054;-84
2021/01/16 02:38:07;;;;;;;20.17;10.25;;;;;;;2.50;69.48;101006.00;5013330;28;20054;-86
2021/01/16 02:40:43;;;;;;;20.80;10.32;;;;;;;2.52;70.26;101002.53;5013670;28;20057;-88
2021/01/16 02:43:21;;;;;;;21.35;10.68;;;;;;;2.54;70.12;100989.53;5012819;28;20050;-88
2021/01/16 02:46:11;;;;;;;21.77;11.55;;;;;;;2.52;69.25;100991.25;5013012;28;20474;-88
2021/01/16 02:49:06;;;;;;;20.17;10.70;;;;;;;2.52;69.83;100989.53;5014165;28;20088;-86
2021/01/16 02:52:09;;;;;;;21.05;11.88;;;;;;;2.53;69.21;100983.47;5014336;28;20054;-84
2021/01/16 02:54:38;;;;;;;21.50;10.63;;;;;;;2.57;70.95;100987.78;4973149;28;20108;-87
2021/01/16 02:57:06;;;;;;;18.70;11.48;;;;;;;2.57;70.85;100987.78;5014986;28;20172;-84
2021/01/16 02:59:51;;;;;;;22.42;12.48;;;;;;;2.55;69.73;100986.06;5013093;28;20060;-86
2021/01/16 03:02:42;;;;;;;19.40;10.65;;;;;;;2.58;70.80;100993.84;5014773;28;20104;-86
2021/01/16 03:05:11;;;;;;;20.88;11.13;;;;;;;2.57;71.31;100985.19;5013130;28;20088;-86
2021/01/16 03:07:40;;;;;;;22.30;11.63;;;;;;;2.58;71.25;100983.47;5013487;28;20410;-84
2021/01/16 03:10:11;;;;;;;21.10;11.85;;;;;;;2.58;71.02;100986.06;5014388;28;20488;-83
2021/01/16 03:12:44;;;;;;;17.67;10.30;;;;;;;2.59;71.11;100977.38;5013037;28;20083;-87
2021/01/16 03:15:20;;;;;;;23.77;12.63;;;;;;;2.57;69.78;100981.69;5012566;28;20060;-83
2021/01/16 03:17:58;;;;;;;20.25;11.43;;;;;;;2.58;69.99;100983.47;5013981;28;20125;-83
2021/01/16 03:20:31;;;;;;;24.33;12.43;;;;;;;2.60;70.94;100985.19;5012560;28;20092;-86
2021/01/16 03:23:01;;;;;;;21.05;12.63;;;;;;;2.59;70.49;100985.19;5012427;28;20054;-86
2021/01/16 03:25:36;;;;;;;24.88;12.63;;;;;;;2.58;70.84;100983.47;5013093;28;20069;-84
2021/01/16 03:28:11;;;;;;;22.55;11.75;;;;;;;2.59;71.31;100990.38;5013083;28;20045;-88
2021/01/16 03:30:37;;;;;;;25.63;13.37;;;;;;;2.58;70.90;100983.47;5014297;28;20067;-86
2021/01/16 03:33:04;;;;;;;19.52;12.68;;;;;;;2.59;70.96;100980.81;5012281;28;20347;-84
2021/01/16 03:35:36;;;;;;;21.50;12.55;;;;;;;2.60;70.66;100986.91;5014029;28;20054;-83
2021/01/16 03:38:03;;;;;;;23.23;12.25;;;;;;;2.62;71.39;100979.97;5012694;28;20077;-84
2021/01/16 03:40:29;;;;;;;22.38;12.63;;;;;;;2.62;71.39;100979.97;5014153;28;20046;-86
2021/01/16 03:42:55;;;;;;;21.60;12.55;;;;;;;2.64;71.34;100985.13;5011920;28;20061;-88
2021/01/16 03:45:32;;;;;;;24.15;13.07;;;;;;;2.64;71.00;100986.00;5013610;28;20060;-86
2021/01/16 03:48:06;;;;;;;24.25;12.85;;;;;;;2.64;71.09;100980.81;5014332;28;20042;-84
2021/01/16 03:50:37;;;;;;;23.33;12.80;;;;;;;2.65;71.14;100979.94;5013488;28;20061;-84
2021/01/16 03:53:11;;;;;;;23.58;13.32;;;;;;;2.66;70.87;100976.50;5013159;28;20054;-84
2021/01/16 03:55:37;;;;;;;22.70;13.32;;;;;;;2.67;70.95;100973.00;5012482;28;20056;-84
2021/01/16 03:58:03;;;;;;;23.52;12.95;;;;;;;2.66;71.02;100966.09;5013572;28;20052;-84
2021/01/16 04:00:30;;;;;;;22.80;13.30;;;;;;;2.67;70.93;100966.94;5017321;28;20054;-88
2021/01/16 04:02:56;;;;;;;25.27;13.27;;;;;;;2.66;71.44;100968.69;5015861;28;20061;-84
2021/01/16 04:05:22;;;;;;;24.27;13.18;;;;;;;2.67;71.22;100961.75;5016263;28;20104;-88
2021/01/16 04:07:50;;;;;;;23.75;13.60;;;;;;;2.67;71.09;100961.75;5017762;28;20392;-86
2021/01/16 04:10:16;;;;;;;21.48;12.32;;;;;;;2.67;70.88;100954.81;5055636;22;20046;-81
2021/01/16 04:12:42;;;;;;;21.10;12.13;;;;;;;2.67;70.92;100956.53;5016379;28;20057;-81
2021/01/16 04:15:08;;;;;;;21.38;12.48;;;;;;;2.66;71.54;100955.69;5016598;28;20096;-81
2021/01/16 04:17:35;;;;;;;22.05;12.55;;;;;;;2.67;71.44;100949.63;5016647;28;20050;-81
2021/01/16 04:20:02;;;;;;;23.55;13.93;;;;;;;2.69;71.11;100952.22;5016516;28;20057;-82
2021/01/16 04:22:29;;;;;;;22.13;11.68;;;;;;;2.69;71.24;100947.84;5016251;28;20421;-81
2021/01/16 04:24:55;;;;;;;19.50;12.10;;;;;;;2.71;71.40;100948.72;5016434;28;20061;-81
2021/01/16 04:27:21;;;;;;;22.00;12.25;;;;;;;2.72;71.33;100947.84;5016534;28;20045;-81
2021/01/16 04:29:48;;;;;;;22.42;11.70;;;;;;;2.74;71.52;100940.06;5016657;28;20050;-81
2021/01/16 04:32:14;;;;;;;25.63;11.77;;;;;;;2.76;71.40;100940.03;5016299;28;20046;-81
2021/01/16 04:34:40;;;;;;;18.52;11.27;;;;;;;2.77;70.72;100937.44;5016092;28;20388;-81
2021/01/16 04:37:06;;;;;;;22.02;12.30;;;;;;;2.79;70.90;100934.81;5016438;28;20076;-81
2021/01/16 04:39:32;;;;;;;18.92;11.38;;;;;;;2.79;71.02;100930.47;5016508;28;20096;-81
2021/01/16 04:42:01;;;;;;;23.75;12.98;;;;;;;2.80;70.77;100921.78;5016003;28;20494;-80
2021/01/16 04:44:33;;;;;;;18.63;11.60;;;;;;;2.78;70.32;100926.16;5016145;28;20112;-81
2021/01/16 04:47:01;;;;;;;22.75;11.38;;;;;;;2.79;70.45;100919.19;5015894;28;20049;-81
2021/01/16 04:49:28;;;;;;;18.27;11.27;;;;;;;2.80;70.95;100926.16;5016157;28;20076;-81
2021/01/16 04:51:56;;;;;;;19.17;11.93;;;;;;;2.78;70.56;100913.16;5015901;28;20053;-80
2021/01/16 04:54:23;;;;;;;21.02;11.98;;;;;;;2.78;70.44;100910.56;5015801;28;20077;-81
2021/01/16 04:56:49;;;;;;;21.75;12.02;;;;;;;2.78;70.35;100902.75;5016205;28;20042;-82
2021/01/16 04:59:15;;;;;;;18.33;10.43;;;;;;;2.77;70.48;100907.97;5016000;28;20092;-81
2021/01/16 05:01:41;;;;;;;18.90;11.30;;;;;;;2.74;70.57;100907.09;5015563;28;20061;-81
2021/01/16 05:04:08;;;;;;;19.92;11.63;;;;;;;2.73;70.64;100894.97;5015637;28;20057;-81
2021/01/16 05:06:39;;;;;;;19.17;11.02;;;;;;;2.73;70.13;100901.94;5015714;28;20045;-82
2021/01/16 05:09:05;;;;;;;21.52;11.60;;;;;;;2.74;70.44;100895.84;5015582;28;20054;-81
2021/01/16 05:11:35;;;;;;;21.40;11.18;;;;;;;2.73;69.87;100896.72;5015379;28;20045;-82
2021/01/16 05:14:16;;;;;;;22.13;11.68;;;;;;;2.70;68.71;100891.53;5015102;28;20426;-81
2021/01/16 05:16:58;;;;;;;21.83;11.60;;;;;;;2.69;70.52;100895.84;5015872;28;20519;-81
2021/01/16 05:19:28;;;;;;;20.10;10.73;;;;;;;2.69;69.83;100888.06;5015640;28;20061;-82
2021/01/16 05:21:55;;;;;;;20.02;11.50;;;;;;;2.68;70.08;100886.34;5015578;28;20049;-80
2021/01/16 05:24:22;;;;;;;21.73;12.25;;;;;;;2.67;70.63;100884.63;5015071;28;20049;-81
2021/01/16 05:26:48;;;;;;;21.00;11.45;;;;;;;2.65;69.94;100886.34;5015357;28;20100;-81
2021/01/16 05:29:14;;;;;;;20.70;11.38;;;;;;;2.65;69.96;100880.31;5015345;28;20054;-81
2021/01/16 05:31:51;;;;;;;16.73;10.48;;;;;;;2.60;68.25;100877.72;5015281;28;20057;-81
2021/01/16 05:34:17;;;;;;;23.17;11.07;;;;;;;2.61;69.91;100879.44;5015028;28;20053;-81
2021/01/16 05:36:48;;;;;;;19.48;11.20;;;;;;;2.58;70.10;100880.31;5015478;28;20054;-81
2021/01/16 05:39:15;;;;;;;20.35;11.55;;;;;;;2.58;70.25;100874.28;5015171;28;20454;-81
2021/01/16 05:41:45;;;;;;;25.05;12.15;;;;;;;2.56;70.43;100866.47;5013742;28;20049;-82
2021/01/16 05:44:11;;;;;;;24.13;12.00;;;;;;;2.56;70.43;100876.88;5014710;28;20065;-81
2021/01/16 05:46:42;;;;;;;21.80;11.52;;;;;;;2.56;70.24;100876.88;5014783;28;20046;-81
2021/01/16 05:49:12;;;;;;;21.85;10.55;;;;;;;2.57;69.78;100872.53;5014932;28;20050;-81
2021/01/16 05:51:38;;;;;;;21.17;12.40;;;;;;;2.58;70.96;100877.72;5014543;28;20446;-82
2021/01/16 05:54:05;;;;;;;23.40;12.27;;;;;;;2.59;70.27;100876.84;5014680;28;20054;-81
2021/01/16 05:56:31;;;;;;;19.98;12.27;;;;;;;2.59;70.28;100871.66;5014597;28;20446;-81
2021/01/16 05:58:58;;;;;;;22.92;12.18;;;;;;;2.58;70.63;100871.69;5014781;28;20120;-82
2021/01/16 06:01:25;;;;;;;20.20;11.60;;;;;;;2.58;71.23;100876.88;5014692;28;20072;-81
2021/01/16 06:03:55;;;;;;;22.15;11.80;;;;;;;2.58;70.92;100875.13;5014297;28;20046;-81
2021/01/16 06:06:22;;;;;;;21.13;11.52;;;;;;;2.59;70.99;100869.03;5014715;28;20049;-81
2021/01/16 06:08:53;;;;;;;23.48;12.63;;;;;;;2.59;70.71;100868.19;5014898;28;20108;-82
2021/01/16 06:11:22;;;;;;;24.30;12.30;;;;;;;2.61;70.86;100863.84;5014597;28;20132;-81
2021/01/16 06:13:50;;;;;;;22.15;12.70;;;;;;;2.60;70.74;100860.41;5014236;28;20054;-81
2021/01/16 06:16:18;;;;;;;20.83;11.98;;;;;;;2.60;70.50;100851.72;5014576;28;20061;-81
2021/01/16 06:19:00;;;;;;;21.23;12.13;;;;;;;2.57;70.07;100847.41;5013027;28;20049;-81
2021/01/16 06:21:28;;;;;;;19.75;11.52;;;;;;;2.61;71.27;100843.03;5012220;28;20061;-81
2021/01/16 06:23:56;;;;;;;19.42;11.73;;;;;;;2.61;71.18;100840.44;5014213;28;20057;-81
2021/01/16 06:26:23;;;;;;;20.00;11.50;;;;;;;2.63;71.13;100840.44;5014274;28;20052;-81
2021/01/16 06:28:54;;;;;;;20.25;11.85;;;;;;;2.64;70.85;100834.38;5014215;28;20100;-82
2021/01/16 06:31:28;;;;;;;22.17;12.93;;;;;;;2.65;69.73;100829.16;5013943;28;20486;-82
2021/01/16 06:33:57;;;;;;;24.38;13.48;;;;;;;2.68;70.98;100825.66;5014134;28;20557;-81
2021/01/16 06:36:29;;;;;;;22.55;13.18;;;;;;;2.66;70.50;100817.91;5013906;28;20499;-82
2021/01/16 06:38:58;;;;;;;20.95;12.13;;;;;;;2.66;70.87;100824.84;5014189;28;20112;-82
2021/01/16 06:41:34;;;;;;;24.75;12.93;;;;;;;2.62;69.71;100823.13;5014492;28;20050;-82
2021/01/16 06:44:01;;;;;;;25.48;13.15;;;;;;;2.60;70.94;100811.00;5013932;28;20053;-81
2021/01/16 06:46:44;;;;;;;24.48;13.90;;;;;;;2.55;69.82;100815.34;5013837;28;20510;-81
2021/01/16 06:49:30;;;;;;;26.35;12.80;;;;;;;2.53;69.26;100824.03;5014143;28;20052;-82
2021/01/16 06:51:58;;;;;;;21.85;12.77;;;;;;;2.53;70.76;100819.72;5013528;28;20060;-80
2021/01/16 06:54:30;;;;;;;26.23;14.23;;;;;;;2.48;70.03;100817.13;5014002;28;20053;-81
2021/01/16 06:57:00;;;;;;;25.75;13.95;;;;;;;2.46;70.20;100818.00;5013856;28;20453;-82
2021/01/16 06:59:27;;;;;;;24.13;14.10;;;;;;;2.44;70.73;100824.97;5013818;28;20495;-82
2021/01/16 07:01:54;;;;;;;24.98;13.82;;;;;;;2.39;70.78;100811.16;5013718;28;20057;-83
2021/01/16 07:04:23;;;;;;;25.80;14.10;;;;;;;2.36;70.64;100817.22;5013861;28;20053;-84
2021/01/16 07:06:50;;;;;;;23.83;12.98;;;;;;;2.32;71.09;100812.91;5013450;28;20501;-81
2021/01/16 07:09:22;;;;;;;24.27;13.60;;;;;;;2.29;70.29;100807.72;5013952;28;20061;-82
2021/01/16 07:11:50;;;;;;;27.38;13.50;;;;;;;2.28;71.45;100803.41;5013649;28;20050;-82
2021/01/16 07:14:17;;;;;;;24.95;13.93;;;;;;;2.27;71.08;100814.66;5013524;28;20502;-81
2021/01/16 07:16:45;;;;;;;25.58;13.55;;;;;;;2.24;71.18;100807.75;5013992;28;20494;-81
2021/01/16 07:19:21;;;;;;;23.27;12.70;;;;;;;2.19;70.26;100805.19;5014094;28;20050;-82
2021/01/16 07:21:47;;;;;;;23.85;13.65;;;;;;;2.18;70.96;100811.25;5013964;28;20419;-82
2021/01/16 07:24:16;;;;;;;24.33;13.77;;;;;;;2.15;71.03;100811.28;5013341;28;20053;-81
2021/01/16 07:26:54;;;;;;;26.27;14.30;;;;;;;2.11;69.96;100812.16;5013499;28;20443;-82
2021/01/16 07:29:21;;;;;;;26.42;15.20;;;;;;;2.12;70.60;100813.88;5013629;28;20057;-81
2021/01/16 07:31:52;;;;;;;31.50;15.68;;;;;;;2.07;71.07;100803.53;5014207;28;20107;-81
2021/01/16 07:34:22;;;;;;;27.58;14.82;;;;;;;2.06;70.64;100799.19;5016175;28;20049;-81
2021/01/16 07:36:51;;;;;;;24.90;14.77;;;;;;;2.05;71.24;100792.25;5017262;28;20057;-81
2021/01/16 07:39:17;;;;;;;26.15;14.23;;;;;;;2.04;71.32;100789.66;5017439;28;20057;-81
2021/01/16 07:41:49;;;;;;;23.98;13.88;;;;;;;2.01;70.66;100789.66;5017240;28;20057;-82
2021/01/16 07:44:19;;;;;;;26.57;14.57;;;;;;;2.02;70.98;100797.47;5016969;28;20494;-81
2021/01/16 07:46:51;;;;;;;28.70;15.90;;;;;;;2.00;70.04;100790.56;5017368;28;20046;-81
2021/01/16 07:49:27;;;;;;;27.73;15.10;;;;;;;1.98;70.23;100794.91;5017249;28;20053;-81
2021/01/16 07:51:56;;;;;;;29.58;14.20;;;;;;;2.00;71.29;100799.22;5017108;28;20108;-81
2021/01/16 07:54:23;;;;;;;20.17;12.18;;;;;;;2.02;71.61;100801.81;5017017;28;20054;-81
2021/01/16 07:56:58;;;;;;;21.13;12.27;;;;;;;2.01;69.85;100784.47;5017301;28;20073;-82
2021/01/16 07:59:32;;;;;;;24.88;13.77;;;;;;;2.01;70.00;100774.97;5017218;28;20414;-82
2021/01/16 08:02:18;;;;;;;24.17;13.10;;;;;;;2.00;68.79;100782.75;5016943;28;20050;-80
2021/01/16 08:05:17;;;;;;;26.13;13.93;;;;;;;2.00;69.37;100785.34;5016889;28;20046;-81
2021/01/16 08:08:07;;;;;;;22.63;12.02;;;;;;;2.00;70.27;100778.44;5017293;28;20050;-81
2021/01/16 08:10:34;;;;;;;22.27;12.48;;;;;;;2.02;71.17;100770.66;5016888;28;20054;-81
2021/01/16 08:13:01;;;;;;;20.42;11.63;;;;;;;2.01;70.88;100768.91;5015572;28;20495;-81
2021/01/16 08:15:29;;;;;;;19.95;10.77;;;;;;;2.01;71.17;100769.78;5016996;28;20053;-81
2021/01/16 08:17:58;;;;;;;20.88;11.93;;;;;;;2.03;71.23;100774.97;5017208;28;20418;-82
2021/01/16 08:20:30;;;;;;;24.50;12.88;;;;;;;2.04;70.91;100763.69;5016811;28;20049;-80
2021/01/16 08:22:57;;;;;;;20.08;11.77;;;;;;;2.06;71.49;100762.81;5015509;28;20045;-82
2021/01/16 08:25:28;;;;;;;20.30;11.75;;;;;;;2.07;70.72;100768.88;5016837;28;20129;-82
2021/01/16 08:28:00;;;;;;;21.38;11.63;;;;;;;2.10;70.73;100765.41;5016689;28;20513;-81
2021/01/16 08:30:28;;;;;;;21.40;11.98;;;;;;;2.12;70.94;100754.13;5016718;28;20045;-81
2021/01/16 08:33:06;;;;;;;22.00;11.95;;;;;;;2.12;69.77;100754.13;5016209;28;20499;-81
2021/01/16 08:35:44;;;;;;;22.70;11.95;;;;;;;2.13;69.79;100755.84;5016503;28;20050;-81
2021/01/16 08:38:16;;;;;;;19.67;11.68;;;;;;;2.16;70.21;100745.44;5016668;28;20046;-81
2021/01/16 08:41:05;;;;;;;22.10;12.77;;;;;;;2.19;70.47;100747.16;5016412;28;20050;-81
2021/01/16 08:43:50;;;;;;;20.83;10.65;;;;;;;2.20;69.87;100749.75;5015534;28;20079;-81
2021/01/16 08:46:18;;;;;;;20.15;11.00;;;;;;;2.25;70.87;100746.25;5016184;28;20057;-81
2021/01/16 08:49:06;;;;;;;21.98;12.25;;;;;;;2.24;69.85;100745.38;5016112;28;20050;-81
2021/01/16 08:51:40;;;;;;;18.85;11.32;;;;;;;2.26;68.57;100730.69;5016254;28;20053;-81
2021/01/16 08:54:22;;;;;;;24.08;11.68;;;;;;;2.28;70.12;100730.66;5016437;28;20050;-83
2021/01/16 08:56:51;;;;;;;16.25;8.75;;;;;;;2.28;70.16;100728.06;5016514;28;20098;-82
2021/01/16 08:59:21;;;;;;;21.88;11.93;;;;;;;2.28;70.35;100731.50;5016365;28;20407;-81
2021/01/16 09:01:53;;;;;;;22.73;11.73;;;;;;;2.28;69.44;100734.09;5016449;28;20060;-81
2021/01/16 09:04:46;;;;;;;20.55;11.77;;;;;;;2.29;70.36;100722.88;5015923;28;20430;-81
2021/01/16 09:07:20;;;;;;;17.90;11.25;;;;;;;2.31;69.75;100741.00;5015053;28;20045;-81
2021/01/16 09:10:00;;;;;;;20.98;11.68;;;;;;;2.30;67.91;100731.50;5016074;28;20112;-81
2021/01/16 09:12:39;;;;;;;20.13;11.43;;;;;;;2.33;68.93;100736.69;5015629;28;20050;-81
2021/01/16 09:15:25;;;;;;;20.65;11.38;;;;;;;2.34;68.32;100736.69;5015739;28;20054;-81
2021/01/16 09:18:12;;;;;;;13.87;7.97;;;;;;;2.38;69.24;100732.31;5015725;28;20156;-81
2021/01/16 09:20:43;;;;;;;17.48;10.27;;;;;;;2.45;70.74;100730.53;5015882;28;20049;-81
2021/01/16 09:23:18;;;;;;;17.55;10.55;;;;;;;2.46;69.92;100733.13;5015345;28;20054;-81
2021/01/16 09:26:05;;;;;;;17.92;11.00;;;;;;;2.48;68.75;100728.75;5014458;28;20458;-81
2021/01/16 09:28:47;;;;;;;18.85;10.52;;;;;;;2.53;68.96;100727.88;5005260;28;20042;-81
2021/01/16 09:31:15;;;;;;;17.30;10.93;;;;;;;2.56;70.70;100715.72;5016003;28;20103;-81
2021/01/16 09:33:46;;;;;;;20.58;11.20;;;;;;;2.55;69.39;100720.94;5015486;28;20414;-81
2021/01/16 09:36:32;;;;;;;17.80;10.60;;;;;;;2.58;70.60;100715.72;5015163;28;20045;-81
2021/01/16 09:38:59;;;;;;;17.77;11.20;;;;;;;2.58;70.40;100716.56;5015589;28;20084;-81
2021/01/16 09:41:34;;;;;;;18.50;11.52;;;;;;;2.58;69.10;100720.91;5015254;28;20054;-81
2021/01/16 09:44:04;;;;;;;21.38;11.45;;;;;;;2.60;70.73;100719.16;5015343;28;20050;-82
2021/01/16 09:46:35;;;;;;;20.23;11.85;;;;;;;2.61;69.23;100718.28;5016033;28;20445;-82
2021/01/16 09:49:06;;;;;;;16.80;10.65;;;;;;;2.63;69.49;100720.88;5014983;28;20129;-82
2021/01/16 09:51:34;;;;;;;18.85;10.23;;;;;;;2.64;70.59;100720.84;5015180;28;20054;-82
2021/01/16 09:54:29;;;;;;;20.58;11.77;;;;;;;2.65;68.27;100713.94;5015039;28;20050;-82
2021/01/16 09:56:57;;;;;;;20.90;11.15;;;;;;;2.69;70.03;100707.81;5014411;28;20050;-82
2021/01/16 09:59:24;;;;;;;18.17;11.25;;;;;;;2.69;69.91;100708.66;5014822;28;20049;-81
2021/01/16 10:02:15;;;;;;;22.00;11.32;;;;;;;2.67;67.28;100702.63;5014629;28;20486;-81
2021/01/16 10:04:44;;;;;;;20.10;11.07;;;;;;;2.72;70.02;100706.06;5015033;28;20108;-81
2021/01/16 10:07:13;;;;;;;18.95;10.65;;;;;;;2.71;70.01;100701.75;5015008;28;20443;-82
2021/01/16 10:09:47;;;;;;;21.05;11.75;;;;;;;2.71;68.28;100693.94;5014905;28;20494;-82
2021/01/16 10:12:32;;;;;;;18.45;10.48;;;;;;;2.70;68.14;100700.00;5053040;23;20054;-86
2021/01/16 10:15:04;;;;;;;17.60;10.07;;;;;;;2.74;69.27;100698.25;5013691;28;20046;-87
2021/01/16 10:17:37;;;;;;;20.33;11.65;;;;;;;2.73;69.34;100691.31;5014633;28;20054;-86
2021/01/16 10:20:16;;;;;;;19.90;11.73;;;;;;;2.72;68.04;100684.38;5013674;28;20060;-85
2021/01/16 10:22:53;;;;;;;20.60;11.13;;;;;;;2.72;67.52;100684.38;5013522;28;20081;-85
2021/01/16 10:25:20;;;;;;;19.48;11.25;;;;;;;2.72;69.38;100687.84;5013587;28;20057;-85
2021/01/16 10:27:52;;;;;;;20.98;11.38;;;;;;;2.71;69.38;100683.53;5014373;28;20508;-88
2021/01/16 10:30:23;;;;;;;17.90;10.40;;;;;;;2.72;69.98;100682.66;5013463;28;20125;-85
2021/01/16 10:32:52;;;;;;;19.38;10.60;;;;;;;2.73;69.54;100675.72;5012931;28;20061;-85
2021/01/16 10:38:55;;;;;;;19.50;11.55;;;;;;;2.76;66.63;100674.84;5014170;28;20558;-87
2021/01/16 10:41:33;;;;;;;18.42;10.93;;;;;;;2.81;69.63;100673.03;4970671;28;20065;-86
2021/01/16 10:44:02;;;;;;;18.80;10.98;;;;;;;2.80;69.55;100671.31;5013000;28;20061;-88
2021/01/16 10:46:42;;;;;;;18.15;10.40;;;;;;;2.81;68.91;100673.03;5012784;28;20513;-89
2021/01/16 10:49:15;;;;;;;20.35;10.57;;;;;;;2.83;69.65;100658.28;5012782;28;20490;-87
2021/01/16 10:52:02;;;;;;;18.40;11.27;;;;;;;2.83;68.47;100655.66;5012649;28;20537;-86
2021/01/16 10:54:29;;;;;;;17.40;10.95;;;;;;;2.88;70.43;100648.72;5013531;28;20477;-86
2021/01/16 10:56:59;;;;;;;17.42;10.70;;;;;;;2.90;69.89;100649.53;5014720;28;20097;-85
2021/01/16 10:59:38;;;;;;;17.10;10.95;;;;;;;2.90;68.98;100641.75;5013534;28;20058;-85
2021/01/16 11:02:17;;;;;;;19.35;11.98;;;;;;;2.94;69.13;100638.22;5013218;28;20054;-85
2021/01/16 11:04:54;;;;;;;17.00;10.90;;;;;;;2.97;68.34;100637.31;5014055;28;20058;-87
2021/01/16 11:07:40;;;;;;;20.65;11.45;;;;;;;2.95;67.02;100632.13;5012324;28;20052;-85
2021/01/16 11:10:16;;;;;;;16.90;11.13;;;;;;;2.98;67.84;100634.72;5013903;28;20046;-88
2021/01/16 11:12:51;;;;;;;21.02;11.98;;;;;;;2.99;69.21;100620.81;5012950;28;20058;-88
2021/01/16 11:15:29;;;;;;;21.33;10.95;;;;;;;3.00;68.25;100617.34;5012587;28;20395;-85
2021/01/16 11:18:01;;;;;;;19.95;11.75;;;;;;;3.00;68.29;100611.28;5013010;28;20050;-86
2021/01/16 11:20:48;;;;;;;19.40;11.68;;;;;;;3.02;69.47;100608.69;5012524;28;20081;-88
2021/01/16 11:23:34;;;;;;;14.55;8.05;;;;;;;3.02;68.27;100614.72;5013005;28;20053;-87
2021/01/16 11:26:14;;;;;;;16.53;9.53;;;;;;;3.03;66.33;100606.03;5012693;28;20081;-88
2021/01/16 11:28:48;;;;;;;19.75;10.95;;;;;;;3.07;68.22;100606.88;5012712;28;20053;-85
2021/01/16 11:31:32;;;;;;;22.15;12.13;;;;;;;3.06;66.95;100607.75;5012487;28;20168;-85
2021/01/16 11:34:32;;;;;;;18.50;11.27;;;;;;;3.06;67.41;100597.38;5012319;28;20128;-86
2021/01/16 11:37:56;;;;;;;;;;;;;;;;;;;;;
2021/01/16 11:40:49;;;;;;;20.42;11.75;;;;;;;3.10;69.18;100596.44;5013776;28;20044;-88
2021/01/16 11:47:18;;;;;;;18.98;11.27;;;;;;;3.12;69.41;100587.75;5009365;28;20050;-85
2021/01/16 11:49:45;;;;;;;18.17;10.98;;;;;;;3.11;69.83;100586.00;5013772;28;20053;-85
2021/01/16 11:52:12;;;;;;;19.95;11.48;;;;;;;3.11;69.05;100575.59;5012442;28;20409;-86
2021/01/16 11:54:42;;;;;;;18.65;11.02;;;;;;;3.10;68.69;100568.66;5012462;28;20140;-86